This is the latest recevied weather packets stored in our database for station/object EB1BWO-11. If no packets are shown the sender has not sent any weather packets the latest 10 day(s).
| Time | Temp. | Humidity | Pressure | Rain* | Wind** | Luminosity | Snow |
|---|---|---|---|---|---|---|---|
| 1777140571 | 18.33° C | 60% | 1023.2 hPa | - | - | - | - |
| 1777139671 | 18.89° C | 60% | 1023.1 hPa | - | - | - | - |
| 1777138770 | 19.44° C | 59% | 1023.1 hPa | - | - | - | - |
| 1777137870 | 20° C | 59% | 1022.9 hPa | - | - | - | - |
| 1777136970 | 20.56° C | 57% | 1022.8 hPa | - | - | - | - |
| 1777136070 | 21.11° C | 57% | 1022.6 hPa | - | - | - | - |
| 1777135169 | 21.67° C | 55% | 1022.6 hPa | - | - | - | - |
| 1777134269 | 23.33° C | 54% | 1022.4 hPa | - | - | - | - |
| 1777133369 | 23.89° C | 53% | 1022.2 hPa | - | - | - | - |
| 1777132469 | 23.33° C | 54% | 1022.2 hPa | - | - | - | - |
| 1777131569 | 23.89° C | 53% | 1022.1 hPa | - | - | - | - |
| 1777130669 | 24.44° C | 53% | 1022.2 hPa | - | - | - | - |
| 1777129768 | 25.56° C | 53% | 1022.1 hPa | - | - | - | - |
| 1777128868 | 25.56° C | 55% | 1022.1 hPa | - | - | - | - |
| 1777127968 | 29.44° C | 50% | 1022 hPa | - | - | - | - |
| 1777127068 | 37.78° C | 39% | 1022.2 hPa | - | - | - | - |
| 1777126167 | 42.78° C | 32% | 1022.2 hPa | - | - | - | - |
| 1777125267 | 42.78° C | 29% | 1022.2 hPa | - | - | - | - |
| 1777124367 | 40.56° C | 35% | 1022.2 hPa | - | - | - | - |
| 1777123467 | 45.56° C | 28% | 1022.2 hPa | - | - | - | - |
| 1777122567 | 46.11° C | 27% | 1022.3 hPa | - | - | - | - |
| 1777121667 | 45° C | 26% | 1022.4 hPa | - | - | - | - |
| 1777120766 | 45° C | 29% | 1022.7 hPa | - | - | - | - |
| 1777119866 | 41.67° C | 31% | 1022.8 hPa | - | - | - | - |
| 1777118966 | 40° C | 32% | 1023.1 hPa | - | - | - | - |
* Rain since midnight (hover to see other rain measurements)
** Current wind speed in m/s (hover to see current wind gust speed)